createdAt,value
2023-02-25T00:00:01.786Z,685.03
2023-02-25T00:00:13.754Z,684.95
2023-02-25T00:00:24.737Z,684.91
2023-02-25T00:00:35.757Z,685.04
2023-02-25T00:00:46.744Z,684.77
2023-02-25T00:00:57.733Z,684.62
2023-02-25T00:01:08.729Z,684.48
2023-02-25T00:01:19.756Z,684.38
2023-02-25T00:01:30.748Z,684.65
2023-02-25T00:01:46.402Z,684.41
2023-02-25T00:02:03.827Z,684.43
2023-02-25T00:02:06.790Z,684.65
2023-02-25T00:02:16.766Z,684.63
2023-02-25T00:02:27.821Z,684.44
2023-02-25T00:02:39.851Z,684.38
2023-02-25T00:02:50.845Z,684.45
2023-02-25T00:03:02.783Z,684.49
2023-02-25T00:03:13.809Z,684.37
2023-02-25T00:03:24.846Z,684.39
2023-02-25T00:03:36.781Z,684.35
2023-02-25T00:03:47.911Z,684.20
2023-02-25T00:03:59.770Z,684.47
2023-02-25T00:04:11.774Z,684.49
2023-02-25T00:04:22.753Z,684.91
2023-02-25T00:04:33.763Z,684.57
2023-02-25T00:04:45.740Z,684.82
2023-02-25T00:04:56.719Z,684.86
2023-02-25T00:05:07.854Z,684.75
2023-02-25T00:05:19.764Z,684.62
2023-02-25T00:05:31.955Z,684.60
2023-02-25T00:05:42.775Z,684.40
2023-02-25T00:05:54.742Z,684.41
2023-02-25T00:06:06.738Z,684.54
2023-02-25T00:06:17.741Z,684.54
2023-02-25T00:06:28.776Z,684.45
2023-02-25T00:06:40.741Z,684.18
2023-02-25T00:06:51.739Z,684.36
2023-02-25T00:07:02.743Z,684.76
2023-02-25T00:07:13.748Z,684.67
2023-02-25T00:07:24.740Z,684.62
2023-02-25T00:07:35.728Z,684.58
2023-02-25T00:07:46.725Z,684.45
2023-02-25T00:07:57.712Z,684.12
2023-02-25T00:08:08.748Z,684.57
2023-02-25T00:08:19.755Z,684.81
2023-02-25T00:08:30.738Z,684.99
2023-02-25T00:08:41.719Z,684.82
2023-02-25T00:08:52.741Z,684.63
2023-02-25T00:09:03.729Z,684.51
2023-02-25T00:09:14.715Z,684.67
2023-02-25T00:09:25.813Z,684.43
2023-02-25T00:09:37.763Z,684.48
2023-02-25T00:09:48.739Z,684.48
2023-02-25T00:09:59.738Z,684.36
2023-02-25T00:10:10.721Z,684.36
2023-02-25T00:10:21.714Z,684.39
2023-02-25T00:10:32.754Z,684.36
2023-02-25T00:10:43.737Z,684.53
2023-02-25T00:10:54.734Z,684.70
2023-02-25T00:11:06.736Z,684.75
2023-02-25T00:11:17.716Z,684.61
2023-02-25T00:11:28.730Z,684.09
2023-02-25T00:11:39.771Z,684.00
2023-02-25T00:11:51.737Z,684.20
2023-02-25T00:12:02.714Z,684.36
2023-02-25T00:12:13.716Z,684.28
2023-02-25T00:12:24.731Z,684.85
2023-02-25T00:12:35.709Z,684.22
2023-02-25T00:12:46.702Z,684.51
2023-02-25T00:13:08.879Z,684.38
2023-02-25T00:13:18.069Z,684.46
2023-02-25T00:13:21.758Z,684.38
2023-02-25T00:13:32.731Z,684.48
2023-02-25T00:13:43.724Z,684.73
2023-02-25T00:13:54.708Z,684.66
2023-02-25T00:14:05.709Z,684.75
2023-02-25T00:14:16.707Z,684.30
2023-02-25T00:14:27.717Z,684.43
2023-02-25T00:14:38.744Z,684.53
2023-02-25T00:14:50.740Z,684.30
2023-02-25T00:15:01.721Z,684.27
2023-02-25T00:15:12.704Z,684.23
2023-02-25T00:15:23.725Z,684.32
2023-02-25T00:15:34.715Z,684.03
2023-02-25T00:15:45.805Z,684.31
2023-02-25T00:15:57.763Z,684.52
2023-02-25T00:16:09.753Z,684.36
2023-02-25T00:16:21.206Z,684.52
2023-02-25T00:16:32.842Z,683.95
2023-02-25T00:16:44.821Z,684.27
2023-02-25T00:16:55.811Z,684.78
2023-02-25T00:17:06.852Z,684.90
2023-02-25T00:17:17.744Z,684.56
2023-02-25T00:17:28.721Z,684.54
2023-02-25T00:17:39.720Z,684.69
2023-02-25T00:17:50.817Z,684.48
2023-02-25T00:18:02.787Z,684.15
2023-02-25T00:18:14.743Z,684.03
2023-02-25T00:18:25.782Z,684.40
2023-02-25T00:18:37.753Z,685.11
2023-02-25T00:18:49.748Z,684.68
2023-02-25T00:19:00.730Z,684.90
2023-02-25T00:19:11.727Z,684.61
2023-02-25T00:19:22.738Z,684.62
2023-02-25T00:19:33.727Z,684.53
2023-02-25T00:19:44.723Z,684.44
2023-02-25T00:19:55.707Z,684.40
2023-02-25T00:20:06.706Z,684.33
2023-02-25T00:20:17.727Z,684.14
2023-02-25T00:20:28.742Z,684.32
2023-02-25T00:20:39.745Z,684.66
2023-02-25T00:20:50.732Z,684.74
2023-02-25T00:21:01.722Z,684.35
2023-02-25T00:21:12.792Z,684.07
2023-02-25T00:21:24.764Z,684.08
2023-02-25T00:21:36.782Z,684.36
2023-02-25T00:21:47.766Z,684.40
2023-02-25T00:21:59.758Z,684.95
2023-02-25T00:22:10.753Z,684.43
2023-02-25T00:22:21.762Z,684.33
2023-02-25T00:22:33.758Z,684.21
2023-02-25T00:22:44.769Z,684.07
2023-02-25T00:22:55.768Z,684.08
2023-02-25T00:23:19.086Z,684.01
2023-02-25T00:23:19.747Z,683.87
2023-02-25T00:23:30.741Z,683.81
2023-02-25T00:23:41.735Z,684.00
2023-02-25T00:23:52.773Z,684.20
2023-02-25T00:24:16.010Z,684.25
2023-02-25T00:24:17.301Z,684.09
2023-02-25T00:24:27.751Z,684.05
2023-02-25T00:24:38.755Z,683.91
2023-02-25T00:24:49.752Z,683.94
2023-02-25T00:25:01.744Z,684.23
2023-02-25T00:25:12.749Z,684.27
2023-02-25T00:25:23.756Z,683.96
2023-02-25T00:25:51.081Z,683.98
2023-02-25T00:25:51.748Z,683.99
2023-02-25T00:26:02.739Z,684.10
2023-02-25T00:26:13.741Z,684.25
2023-02-25T00:26:24.977Z,684.28
2023-02-25T00:26:35.716Z,683.98
2023-02-25T00:26:46.796Z,684.36
2023-02-25T00:26:58.778Z,684.23
2023-02-25T00:27:10.735Z,684.52
2023-02-25T00:27:21.710Z,685.23
2023-02-25T00:27:32.757Z,685.25
2023-02-25T00:27:44.738Z,685.08
2023-02-25T00:28:18.540Z,684.74
2023-02-25T00:28:19.806Z,684.57
2023-02-25T00:28:31.770Z,684.59
2023-02-25T00:28:42.756Z,684.65
2023-02-25T00:28:53.758Z,684.65
2023-02-25T00:29:15.954Z,684.51
2023-02-25T00:29:16.712Z,684.59
2023-02-25T00:29:27.756Z,684.73
2023-02-25T00:29:38.756Z,685.00
2023-02-25T00:30:06.058Z,684.76
2023-02-25T00:30:06.724Z,684.55
2023-02-25T00:30:17.729Z,684.86
2023-02-25T00:30:28.717Z,685.04
2023-02-25T00:32:29.851Z,684.32
2023-02-25T00:32:40.858Z,684.38
2023-02-25T00:32:52.813Z,684.20
2023-02-25T00:33:03.715Z,683.74
2023-02-25T00:33:14.701Z,683.96
2023-02-25T00:33:25.700Z,684.06
2023-02-25T00:33:36.689Z,684.05
2023-02-25T00:33:47.700Z,684.02
2023-02-25T00:33:58.696Z,683.93
2023-02-25T00:34:09.711Z,684.10
2023-02-25T00:34:20.737Z,684.06
2023-02-25T00:34:32.727Z,684.23
2023-02-25T00:34:44.721Z,684.32
2023-02-25T00:34:56.718Z,684.36
2023-02-25T00:35:07.699Z,684.25
2023-02-25T00:35:18.696Z,684.03
2023-02-25T00:35:29.742Z,683.88
2023-02-25T00:35:40.757Z,684.09
2023-02-25T00:35:51.738Z,683.77
2023-02-25T00:36:02.728Z,684.05
2023-02-25T00:36:13.738Z,684.03
2023-02-25T00:36:25.090Z,684.39
2023-02-25T00:36:36.734Z,684.25
2023-02-25T00:36:47.762Z,684.35
2023-02-25T00:36:59.767Z,684.41
2023-02-25T00:37:11.779Z,684.31
2023-02-25T00:37:23.739Z,684.41
2023-02-25T00:37:35.708Z,684.59
2023-02-25T00:37:46.750Z,684.32
2023-02-25T00:38:13.697Z,684.14
2023-02-25T00:38:16.152Z,684.17
2023-02-25T00:38:22.762Z,684.19
2023-02-25T00:38:33.750Z,684.13
2023-02-25T00:38:45.732Z,684.15
2023-02-25T00:38:56.712Z,684.26
2023-02-25T00:39:08.723Z,684.36
2023-02-25T00:39:19.806Z,684.43
2023-02-25T00:39:30.711Z,684.48
2023-02-25T00:39:41.766Z,684.28
2023-02-25T00:39:52.740Z,684.47
2023-02-25T00:40:04.708Z,684.35
2023-02-25T00:40:15.675Z,684.13
2023-02-25T00:40:26.781Z,684.26
2023-02-25T00:40:38.730Z,684.62
2023-02-25T00:40:49.736Z,684.64
2023-02-25T00:41:01.713Z,684.34
2023-02-25T00:41:12.818Z,684.14
2023-02-25T00:41:23.731Z,684.42
2023-02-25T00:41:34.766Z,684.41
2023-02-25T00:41:46.745Z,684.32
2023-02-25T00:41:57.734Z,684.40
2023-02-25T00:42:09.710Z,684.58
2023-02-25T00:42:21.724Z,684.44
2023-02-25T00:42:32.721Z,684.87
2023-02-25T00:42:43.710Z,685.30
2023-02-25T00:42:54.709Z,685.12
2023-02-25T00:43:05.691Z,684.63
2023-02-25T00:43:16.688Z,684.49
2023-02-25T00:43:27.686Z,684.43
2023-02-25T00:43:38.767Z,684.78
2023-02-25T00:43:50.722Z,684.80
2023-02-25T00:44:01.720Z,684.66
2023-02-25T00:44:12.722Z,684.37
2023-02-25T00:44:23.702Z,684.50
2023-02-25T00:44:34.697Z,684.22
2023-02-25T00:44:45.715Z,684.73
2023-02-25T00:44:56.738Z,684.52
2023-02-25T00:45:07.719Z,684.71
2023-02-25T00:45:49.777Z,684.68
2023-02-25T00:45:50.730Z,684.37
2023-02-25T00:46:02.746Z,684.43
2023-02-25T00:46:13.752Z,684.88
2023-02-25T00:46:25.298Z,685.01
2023-02-25T00:46:35.878Z,685.16
2023-02-25T00:46:46.761Z,685.16
2023-02-25T00:46:57.800Z,684.91
2023-02-25T00:47:09.751Z,684.61
2023-02-25T00:47:20.759Z,684.63
2023-02-25T00:47:32.802Z,684.97
2023-02-25T00:47:44.779Z,685.30
2023-02-25T00:47:55.768Z,684.97
2023-02-25T00:48:06.751Z,684.79
2023-02-25T00:48:17.731Z,684.29
2023-02-25T00:48:28.735Z,684.49
2023-02-25T00:48:39.730Z,684.36
2023-02-25T00:48:50.777Z,684.54
2023-02-25T00:49:01.768Z,684.53
2023-02-25T00:49:27.033Z,684.58
2023-02-25T00:49:32.230Z,684.38
2023-02-25T00:49:38.761Z,684.50
2023-02-25T00:49:49.773Z,684.53
2023-02-25T00:53:40.751Z,684.68
2023-02-25T00:53:46.728Z,684.63
2023-02-25T00:53:57.748Z,684.56
2023-02-25T00:54:09.724Z,684.16
2023-02-25T00:54:20.705Z,684.34
2023-02-25T00:54:31.727Z,684.71
2023-02-25T00:54:42.720Z,684.23
2023-02-25T00:54:53.723Z,684.04
2023-02-25T00:55:04.743Z,684.13
2023-02-25T00:55:16.696Z,683.94
2023-02-25T00:55:27.692Z,684.12
2023-02-25T00:55:38.701Z,684.05
2023-02-25T00:55:49.690Z,684.30
2023-02-25T00:56:00.687Z,684.29
2023-02-25T00:56:11.769Z,684.30
2023-02-25T00:56:24.179Z,684.25
2023-02-25T00:56:34.718Z,684.35
2023-02-25T00:56:45.742Z,684.41
2023-02-25T00:56:56.747Z,684.18
2023-02-25T00:57:07.753Z,683.75
2023-02-25T00:57:18.751Z,684.01
2023-02-25T00:57:30.738Z,684.93
2023-02-25T00:57:42.738Z,684.75
2023-02-25T00:58:08.761Z,684.54
2023-02-25T00:58:09.732Z,684.21
2023-02-25T00:58:20.710Z,684.49
2023-02-25T00:58:32.719Z,684.58
2023-02-25T00:58:43.712Z,684.17
2023-02-25T00:58:54.738Z,684.36
2023-02-25T00:59:20.761Z,684.78
2023-02-25T00:59:21.777Z,684.36
2023-02-25T00:59:33.741Z,684.32
2023-02-25T00:59:44.724Z,684.33
2023-02-25T00:59:55.721Z,684.49
2023-02-25T01:00:06.717Z,684.32
2023-02-25T01:00:17.701Z,684.56
2023-02-25T01:00:28.698Z,684.40
2023-02-25T01:00:51.285Z,684.45
2023-02-25T01:00:52.724Z,684.33
2023-02-25T01:01:03.718Z,684.37
2023-02-25T01:01:14.725Z,684.35
2023-02-25T01:01:25.783Z,684.51
2023-02-25T01:01:36.765Z,683.96
2023-02-25T01:01:48.805Z,684.19
2023-02-25T01:02:00.789Z,684.17
2023-02-25T01:02:11.708Z,684.33
2023-02-25T01:04:29.772Z,684.57
2023-02-25T01:04:41.778Z,684.53
2023-02-25T01:04:53.736Z,684.61
2023-02-25T01:05:05.730Z,684.66
2023-02-25T01:05:16.727Z,684.67
2023-02-25T01:05:28.725Z,684.76
2023-02-25T01:05:39.697Z,684.65
2023-02-25T01:05:57.792Z,684.51
2023-02-25T01:06:02.759Z,684.19
2023-02-25T01:06:14.757Z,684.27
2023-02-25T01:06:25.790Z,684.60
2023-02-25T01:06:37.719Z,684.39
2023-02-25T01:06:49.746Z,684.67
2023-02-25T01:07:08.712Z,684.99
2023-02-25T01:07:13.720Z,684.73
2023-02-25T01:07:24.696Z,684.89
2023-02-25T01:07:36.704Z,684.80
2023-02-25T01:07:47.689Z,684.31
2023-02-25T01:07:58.780Z,684.66
2023-02-25T01:08:10.735Z,684.35
2023-02-25T01:08:21.734Z,684.58
2023-02-25T01:08:32.728Z,684.48
2023-02-25T01:08:43.747Z,684.66
2023-02-25T01:08:55.716Z,684.32
2023-02-25T01:09:06.707Z,684.20
2023-02-25T01:09:17.707Z,684.34
2023-02-25T01:09:28.692Z,684.33
2023-02-25T01:09:39.681Z,684.16
2023-02-25T01:09:50.698Z,684.12
2023-02-25T01:10:01.685Z,683.93
2023-02-25T01:10:12.688Z,684.29
2023-02-25T01:10:23.688Z,684.45
2023-02-25T01:10:34.683Z,684.59
2023-02-25T01:10:45.669Z,684.53
2023-02-25T01:10:56.717Z,684.14
2023-02-25T01:11:07.701Z,684.00
2023-02-25T01:11:18.714Z,684.46
2023-02-25T01:11:29.793Z,684.37
2023-02-25T01:11:40.711Z,684.48
2023-02-25T01:11:51.728Z,684.40
2023-02-25T01:12:03.723Z,684.41
2023-02-25T01:12:14.715Z,684.80
2023-02-25T01:12:25.697Z,684.64
2023-02-25T01:12:36.691Z,684.73
2023-02-25T01:12:47.773Z,684.90
2023-02-25T01:12:59.734Z,684.68
2023-02-25T01:13:11.680Z,684.48
2023-02-25T01:13:22.692Z,684.51
2023-02-25T01:13:33.739Z,684.23
2023-02-25T01:13:44.752Z,683.97
2023-02-25T01:13:56.765Z,684.47
2023-02-25T01:14:07.764Z,683.96
2023-02-25T01:14:18.779Z,684.42
2023-02-25T01:14:30.735Z,684.34
2023-02-25T01:14:41.742Z,684.40
2023-02-25T01:14:52.726Z,684.33
2023-02-25T01:15:03.723Z,684.18
2023-02-25T01:15:14.705Z,684.39
2023-02-25T01:15:25.701Z,684.60
2023-02-25T01:15:36.688Z,684.54
2023-02-25T01:15:47.753Z,684.22
2023-02-25T01:15:58.797Z,684.01
2023-02-25T01:16:10.743Z,684.24
2023-02-25T01:16:22.096Z,684.03
2023-02-25T01:16:33.767Z,684.01
2023-02-25T01:16:45.764Z,683.56
2023-02-25T01:16:57.712Z,683.64
2023-02-25T01:17:08.699Z,683.56
2023-02-25T01:17:19.718Z,683.52
2023-02-25T01:17:30.694Z,683.95
2023-02-25T01:17:42.364Z,684.06
2023-02-25T01:17:52.690Z,683.74
2023-02-25T01:18:03.695Z,683.57
2023-02-25T01:18:14.678Z,683.56
2023-02-25T01:18:25.789Z,683.65
2023-02-25T01:18:37.738Z,684.07
2023-02-25T01:18:48.754Z,684.12
2023-02-25T01:19:00.784Z,684.53
2023-02-25T01:19:12.771Z,684.13
2023-02-25T01:19:24.761Z,683.90
2023-02-25T01:19:36.700Z,683.71
2023-02-25T01:19:47.700Z,683.91
2023-02-25T01:19:58.779Z,684.09
2023-02-25T01:20:10.734Z,683.96
2023-02-25T01:20:21.740Z,683.83
2023-02-25T01:20:32.731Z,683.97
2023-02-25T01:20:43.716Z,684.07
2023-02-25T01:20:54.702Z,683.98
2023-02-25T01:21:05.704Z,683.85
2023-02-25T01:21:16.686Z,683.87
2023-02-25T01:21:27.683Z,683.63
2023-02-25T01:21:38.776Z,683.37
2023-02-25T01:21:50.757Z,683.50
2023-02-25T01:22:02.707Z,683.53
2023-02-25T01:22:13.687Z,683.15
2023-02-25T01:22:24.780Z,684.31
2023-02-25T01:22:36.685Z,683.50
2023-02-25T01:22:47.704Z,683.92
2023-02-25T01:22:58.728Z,684.15
2023-02-25T01:23:09.734Z,683.96
2023-02-25T01:23:20.751Z,683.83
2023-02-25T01:23:31.750Z,683.79
2023-02-25T01:23:42.755Z,683.67
2023-02-25T01:23:53.762Z,683.52
2023-02-25T01:24:04.760Z,683.60
2023-02-25T01:24:15.758Z,683.70
2023-02-25T01:24:26.779Z,683.81
2023-02-25T01:24:38.744Z,683.76
2023-02-25T01:24:49.759Z,683.70
2023-02-25T01:25:00.768Z,682.96
2023-02-25T01:25:12.731Z,684.44
2023-02-25T01:25:23.738Z,683.99
2023-02-25T01:25:34.719Z,684.53
2023-02-25T01:25:45.756Z,684.28
2023-02-25T01:25:56.756Z,684.09
2023-02-25T01:26:07.751Z,683.68
2023-02-25T01:26:18.727Z,683.84
2023-02-25T01:26:29.710Z,684.05
2023-02-25T01:26:40.752Z,684.42
2023-02-25T01:26:51.775Z,684.48
2023-02-25T01:27:03.780Z,683.93
2023-02-25T01:27:15.746Z,683.74
2023-02-25T01:27:26.727Z,683.86
2023-02-25T01:27:37.719Z,683.83
2023-02-25T01:27:48.720Z,683.60
2023-02-25T01:27:59.745Z,683.65
2023-02-25T01:28:10.756Z,683.93
2023-02-25T01:28:22.749Z,684.13
2023-02-25T01:28:33.735Z,683.84
2023-02-25T01:28:44.760Z,683.90
2023-02-25T01:28:55.793Z,683.61
2023-02-25T01:29:07.780Z,683.22
2023-02-25T01:29:19.795Z,683.81
2023-02-25T01:29:31.749Z,683.58
2023-02-25T01:29:42.744Z,684.38
2023-02-25T01:29:53.740Z,684.22
2023-02-25T01:30:04.726Z,683.84
2023-02-25T01:30:15.728Z,684.10
2023-02-25T01:32:35.918Z,684.02
2023-02-25T01:32:47.820Z,682.82
2023-02-25T01:32:59.784Z,684.13
2023-02-25T01:33:10.725Z,683.91
2023-02-25T01:33:21.733Z,683.97
2023-02-25T01:33:32.733Z,683.98
2023-02-25T01:33:44.736Z,684.07
2023-02-25T01:33:55.739Z,684.41
2023-02-25T01:34:06.722Z,684.61
2023-02-25T01:34:17.718Z,684.55
2023-02-25T01:34:28.692Z,684.37
2023-02-25T01:34:39.694Z,683.90
2023-02-25T01:34:50.725Z,684.48
2023-02-25T01:35:01.721Z,684.56
2023-02-25T01:35:12.713Z,684.53
2023-02-25T01:35:23.706Z,684.74
2023-02-25T01:35:34.714Z,684.28
2023-02-25T01:35:45.720Z,684.07
2023-02-25T01:35:56.709Z,683.99
2023-02-25T01:36:07.703Z,684.18
2023-02-25T01:36:18.688Z,683.84
2023-02-25T01:36:29.692Z,684.13
2023-02-25T01:36:40.682Z,684.50
2023-02-25T01:36:51.704Z,684.09
2023-02-25T01:37:02.700Z,684.40
2023-02-25T01:37:13.706Z,684.67
2023-02-25T01:37:24.694Z,684.53
2023-02-25T01:37:35.679Z,684.59
2023-02-25T01:37:46.693Z,684.55
2023-02-25T01:37:57.698Z,684.56
2023-02-25T01:38:08.695Z,684.38
2023-02-25T01:38:19.717Z,684.79
2023-02-25T01:38:30.706Z,684.76
2023-02-25T01:38:41.705Z,684.19
2023-02-25T01:38:52.699Z,684.29
2023-02-25T01:39:03.730Z,684.65
2023-02-25T01:39:14.735Z,684.71
2023-02-25T01:39:26.536Z,684.37
2023-02-25T01:39:37.746Z,684.24
2023-02-25T01:39:48.742Z,683.89
2023-02-25T01:40:00.759Z,684.45
2023-02-25T01:40:12.721Z,684.13
2023-02-25T01:40:23.718Z,683.53
2023-02-25T01:40:34.708Z,684.50
2023-02-25T01:40:45.708Z,684.33
2023-02-25T01:40:56.682Z,684.31
2023-02-25T01:41:07.680Z,684.84
2023-02-25T01:41:18.778Z,684.95
2023-02-25T01:41:30.727Z,684.27
2023-02-25T01:41:41.717Z,683.98
2023-02-25T01:41:52.727Z,683.88
2023-02-25T01:42:03.750Z,684.32
2023-02-25T01:42:15.725Z,684.27
2023-02-25T01:42:26.723Z,684.64
2023-02-25T01:42:38.708Z,684.28
2023-02-25T01:42:49.708Z,684.35
2023-02-25T01:43:00.712Z,683.86
2023-02-25T01:43:11.714Z,683.54
2023-02-25T01:43:22.716Z,683.84
2023-02-25T01:43:33.736Z,685.17
2023-02-25T01:43:44.747Z,684.09
2023-02-25T01:43:55.725Z,684.66
2023-02-25T01:44:06.698Z,684.33
2023-02-25T01:44:17.691Z,684.27
2023-02-25T01:44:28.695Z,684.99
2023-02-25T01:44:39.686Z,684.57
2023-02-25T01:44:50.713Z,683.80
2023-02-25T01:45:01.719Z,683.93
2023-02-25T01:45:12.720Z,683.84
2023-02-25T01:45:23.769Z,683.81
2023-02-25T01:45:35.757Z,683.45
2023-02-25T01:45:46.692Z,684.56
2023-02-25T01:45:57.718Z,684.61
2023-02-25T01:46:08.723Z,684.67
2023-02-25T01:46:19.805Z,684.33
2023-02-25T01:46:31.734Z,684.57
2023-02-25T01:46:43.806Z,684.49
2023-02-25T01:46:54.767Z,683.45
2023-02-25T01:47:23.044Z,684.35
2023-02-25T01:47:23.784Z,684.38
2023-02-25T01:47:34.688Z,684.50
2023-02-25T01:47:45.773Z,684.55
2023-02-25T01:47:57.730Z,684.23
2023-02-25T01:48:08.709Z,684.31
2023-02-25T01:48:19.709Z,684.03
2023-02-25T01:48:30.701Z,684.11
2023-02-25T01:48:41.715Z,684.50
2023-02-25T01:48:52.705Z,683.99
2023-02-25T01:49:03.711Z,683.89
2023-02-25T01:49:14.717Z,684.20
2023-02-25T01:49:25.738Z,683.87
2023-02-25T01:49:36.715Z,684.34
2023-02-25T01:49:47.724Z,684.24
2023-02-25T01:49:58.711Z,684.02
2023-02-25T01:50:10.703Z,684.14
2023-02-25T01:50:21.688Z,684.08
2023-02-25T01:50:32.730Z,683.66
2023-02-25T01:50:43.720Z,683.46
2023-02-25T01:50:55.748Z,683.66
2023-02-25T01:51:07.710Z,684.14
2023-02-25T01:51:18.714Z,683.92
2023-02-25T01:51:29.732Z,683.98
2023-02-25T01:51:40.750Z,684.45
2023-02-25T01:51:52.721Z,684.32
2023-02-25T01:52:03.745Z,684.06
2023-02-25T01:52:15.698Z,684.15
2023-02-25T01:52:26.688Z,683.96
2023-02-25T01:52:37.778Z,683.87
2023-02-25T01:52:49.741Z,684.24
2023-02-25T01:53:00.733Z,684.15
2023-02-25T01:53:11.701Z,683.82
2023-02-25T01:53:22.697Z,684.17
2023-02-25T01:53:33.691Z,683.98
2023-02-25T01:53:44.691Z,684.14
2023-02-25T01:53:55.718Z,683.97
2023-02-25T01:54:06.736Z,683.95
2023-02-25T01:54:17.730Z,683.91
2023-02-25T01:54:28.726Z,683.91
2023-02-25T01:54:39.715Z,683.72
2023-02-25T01:54:50.728Z,683.61
2023-02-25T01:55:01.724Z,683.69
2023-02-25T01:55:12.713Z,683.85
2023-02-25T01:55:23.693Z,683.87
2023-02-25T01:55:34.698Z,683.25
2023-02-25T01:55:45.712Z,683.00
2023-02-25T01:55:56.738Z,683.69
2023-02-25T01:56:07.735Z,683.80
2023-02-25T01:56:18.738Z,683.91
2023-02-25T01:56:29.730Z,683.50
2023-02-25T01:56:41.722Z,682.96
2023-02-25T01:56:53.714Z,683.23
2023-02-25T01:57:04.715Z,683.77
2023-02-25T01:57:16.721Z,684.11
2023-02-25T01:57:27.717Z,684.04
2023-02-25T01:57:38.703Z,683.48
2023-02-25T01:57:49.717Z,683.17
2023-02-25T01:58:00.706Z,683.48
2023-02-25T01:58:11.696Z,683.42
2023-02-25T01:58:22.783Z,683.30
2023-02-25T01:58:34.757Z,683.20
2023-02-25T01:58:45.731Z,683.45
2023-02-25T01:58:56.715Z,683.66
2023-02-25T01:59:08.713Z,683.86
2023-02-25T01:59:19.725Z,683.62
2023-02-25T01:59:30.710Z,683.53
2023-02-25T01:59:41.751Z,683.68
2023-02-25T01:59:52.731Z,684.12
2023-02-25T02:00:03.723Z,684.05
2023-02-25T02:00:14.723Z,683.81
2023-02-25T02:00:25.771Z,683.99
2023-02-25T02:00:36.726Z,684.23
2023-02-25T02:00:48.736Z,684.05
2023-02-25T02:01:00.883Z,683.91
2023-02-25T02:01:11.774Z,683.85
2023-02-25T02:01:22.780Z,683.68
2023-02-25T02:01:34.757Z,683.56
2023-02-25T02:01:45.752Z,683.49
2023-02-25T02:01:56.735Z,683.65
2023-02-25T02:02:07.783Z,683.47
2023-02-25T02:02:19.802Z,683.29
2023-02-25T02:02:31.819Z,683.11
2023-02-25T02:02:43.809Z,683.48
2023-02-25T02:02:54.766Z,683.76
2023-02-25T02:03:06.752Z,683.93
2023-02-25T02:03:18.713Z,683.94
2023-02-25T02:03:29.712Z,683.66
2023-02-25T02:03:40.713Z,683.76
2023-02-25T02:03:51.719Z,683.59
2023-02-25T02:04:02.709Z,683.67
2023-02-25T02:04:13.702Z,683.73
2023-02-25T02:04:26.595Z,683.74
2023-02-25T02:04:36.752Z,683.84
2023-02-25T02:04:47.731Z,683.57
2023-02-25T02:04:58.732Z,683.43
2023-02-25T02:05:09.729Z,683.53
2023-02-25T02:05:21.713Z,683.60
2023-02-25T02:05:32.720Z,683.78
2023-02-25T02:05:43.748Z,683.90
2023-02-25T02:05:54.726Z,683.83
2023-02-25T02:06:05.730Z,683.91
2023-02-25T02:06:17.709Z,683.80
2023-02-25T02:06:28.705Z,683.93
2023-02-25T02:06:39.696Z,683.56
2023-02-25T02:06:50.700Z,683.48
2023-02-25T02:07:01.700Z,683.68
2023-02-25T02:07:12.684Z,683.64
2023-02-25T02:07:23.683Z,683.79
2023-02-25T02:07:34.689Z,683.54
2023-02-25T02:07:45.786Z,683.94
2023-02-25T02:07:57.738Z,684.00
2023-02-25T02:08:09.719Z,683.97
2023-02-25T02:08:20.720Z,683.84
2023-02-25T02:08:31.713Z,683.66
2023-02-25T02:08:43.720Z,683.38
2023-02-25T02:08:54.721Z,683.25
2023-02-25T02:09:05.741Z,683.73
2023-02-25T02:09:16.731Z,683.65
2023-02-25T02:09:27.722Z,683.47
2023-02-25T02:09:38.712Z,683.65
2023-02-25T02:09:49.726Z,683.74
2023-02-25T02:10:00.706Z,683.64
2023-02-25T02:10:11.696Z,683.30
2023-02-25T02:10:22.688Z,683.43
2023-02-25T02:10:33.685Z,683.30
2023-02-25T02:10:44.694Z,682.78
2023-02-25T02:10:55.775Z,683.39
2023-02-25T02:11:07.732Z,683.99
2023-02-25T02:11:18.724Z,683.91
2023-02-25T02:11:29.704Z,683.79
2023-02-25T02:11:40.740Z,683.24
2023-02-25T02:11:51.744Z,683.63
2023-02-25T02:12:03.738Z,683.86
2023-02-25T02:12:14.762Z,683.84
2023-02-25T02:12:25.740Z,683.70
2023-02-25T02:12:37.730Z,683.70
2023-02-25T02:12:48.725Z,683.90
2023-02-25T02:12:59.719Z,683.59
2023-02-25T02:13:10.726Z,683.78
2023-02-25T02:13:21.717Z,683.75
2023-02-25T02:13:33.740Z,683.69
2023-02-25T02:13:44.723Z,683.72
2023-02-25T02:13:55.718Z,683.96
2023-02-25T02:14:06.697Z,684.14
2023-02-25T02:14:17.742Z,684.33
2023-02-25T02:14:28.737Z,684.51
2023-02-25T02:14:39.739Z,684.55
2023-02-25T02:14:50.714Z,684.45
2023-02-25T02:15:01.718Z,684.39
2023-02-25T02:15:12.727Z,684.76
2023-02-25T02:15:23.719Z,684.40
2023-02-25T02:15:34.705Z,684.18
2023-02-25T02:15:45.740Z,684.44
2023-02-25T02:15:56.761Z,684.19
2023-02-25T02:16:08.721Z,684.32
2023-02-25T02:16:19.823Z,684.21
2023-02-25T02:16:31.777Z,684.14
2023-02-25T02:16:43.772Z,684.28
2023-02-25T02:16:54.725Z,684.04
2023-02-25T02:17:05.711Z,683.76
2023-02-25T02:17:16.705Z,683.96
2023-02-25T02:17:30.082Z,683.89
2023-02-25T02:17:38.749Z,683.90
2023-02-25T02:17:49.749Z,684.37
2023-02-25T02:18:00.725Z,684.21
2023-02-25T02:18:11.721Z,684.07
2023-02-25T02:18:22.703Z,684.33
2023-02-25T02:18:33.703Z,684.36
2023-02-25T02:18:44.696Z,684.31
2023-02-25T02:18:55.697Z,683.95
2023-02-25T02:19:06.681Z,684.03
2023-02-25T02:19:17.780Z,683.74
2023-02-25T02:19:29.681Z,683.86
2023-02-25T02:19:40.714Z,684.13
2023-02-25T02:19:51.713Z,684.36
2023-02-25T02:20:02.733Z,684.20
2023-02-25T02:20:13.731Z,683.91
2023-02-25T02:20:24.732Z,684.07
2023-02-25T02:20:35.734Z,683.96
2023-02-25T02:20:46.726Z,683.90
2023-02-25T02:20:57.731Z,683.69
2023-02-25T02:21:08.708Z,683.69
2023-02-25T02:21:19.719Z,683.75
2023-02-25T02:21:30.719Z,683.90
2023-02-25T02:21:41.748Z,684.05
2023-02-25T02:21:53.740Z,684.08
2023-02-25T02:22:04.727Z,684.03
2023-02-25T02:22:15.740Z,684.20
2023-02-25T02:22:26.739Z,684.39
2023-02-25T02:22:37.744Z,684.15
2023-02-25T02:22:48.761Z,683.67
2023-02-25T02:23:00.716Z,683.76
2023-02-25T02:23:11.728Z,684.09
2023-02-25T02:23:22.744Z,683.97
2023-02-25T02:23:34.741Z,683.80
2023-02-25T02:23:45.730Z,683.66
2023-02-25T02:23:56.749Z,683.55
2023-02-25T02:24:08.715Z,683.45
2023-02-25T02:24:19.727Z,683.49
2023-02-25T02:24:30.740Z,683.44
2023-02-25T02:24:41.718Z,683.67
2023-02-25T02:24:52.697Z,684.62
2023-02-25T02:25:03.723Z,684.15
2023-02-25T02:25:15.712Z,683.88
2023-02-25T02:25:26.715Z,684.10
2023-02-25T02:25:37.736Z,684.50
2023-02-25T02:25:48.717Z,684.36
2023-02-25T02:25:59.732Z,684.06
2023-02-25T02:26:11.753Z,684.16
2023-02-25T02:26:24.064Z,684.40
2023-02-25T02:26:34.743Z,684.03
2023-02-25T02:26:45.734Z,684.38
2023-02-25T02:26:56.713Z,683.75
2023-02-25T02:27:07.719Z,683.64
2023-02-25T02:27:18.719Z,684.40
2023-02-25T02:27:29.741Z,684.31
2023-02-25T02:27:40.728Z,684.25
2023-02-25T02:27:51.720Z,684.39
2023-02-25T02:28:02.718Z,684.18
2023-02-25T02:28:14.709Z,684.21
2023-02-25T02:28:25.736Z,684.32
2023-02-25T02:28:36.723Z,684.07
2023-02-25T02:28:47.725Z,684.45
2023-02-25T02:28:58.717Z,684.33
2023-02-25T02:29:09.722Z,683.98
2023-02-25T02:29:21.708Z,683.49
2023-02-25T02:29:32.703Z,684.42
2023-02-25T02:29:43.683Z,684.39
2023-02-25T02:29:54.708Z,684.58
2023-02-25T02:30:05.738Z,684.22
2023-02-25T02:30:16.727Z,683.28
2023-02-25T02:30:27.893Z,685.00
2023-02-25T02:30:39.728Z,683.88
2023-02-25T02:30:51.770Z,684.27